Terminal Aerodrome Forecast
Issued by NWS

Current Version | Previous Version | Text Only | Print | Product List | Glossary On
Versions: 1 2 3 4 5 6 7 8 9 10 11 12 13 14 15 16 17 18 19 20
000
FTUS43 KILX 202200 AAD
TAFDEC
TAF AMD
KDEC 202220Z 2022/2118 25012KT P6SM -RA VCTS SCT040CB OVC050
      TEMPO 2022/2024 3SM TSRA BKN015CB
     FM210200 24009KT P6SM BKN045
     FM210700 26007KT 6SM BR SCT045
     FM211200 29011KT P6SM SCT035
     FM211600 31014G22KT P6SM BKN040=

USA.gov is the U.S. government's official web portal to all federal, state and local government web resources and services.